createdAt,value
2022-10-29T00:00:28.080Z,23.49
2022-10-29T00:00:58.523Z,23.46
2022-10-29T00:01:28.984Z,23.44
2022-10-29T00:01:59.465Z,23.44
2022-10-29T00:02:29.929Z,23.45
2022-10-29T00:03:00.458Z,23.46
2022-10-29T00:03:30.868Z,23.47
2022-10-29T00:04:01.326Z,23.47
2022-10-29T00:04:31.722Z,23.46
2022-10-29T00:05:02.153Z,23.47
2022-10-29T00:05:32.720Z,23.46
2022-10-29T00:06:03.150Z,23.47
2022-10-29T00:06:33.570Z,23.47
2022-10-29T00:07:04.018Z,23.45
2022-10-29T00:07:34.437Z,23.46
2022-10-29T00:08:04.863Z,23.46
2022-10-29T00:08:35.289Z,23.44
2022-10-29T00:09:05.705Z,23.44
2022-10-29T00:09:36.129Z,23.41
2022-10-29T00:10:06.552Z,23.41
2022-10-29T00:10:36.996Z,23.41
2022-10-29T00:11:07.442Z,23.42
2022-10-29T00:11:37.841Z,23.43
2022-10-29T00:12:08.273Z,23.45
2022-10-29T00:12:38.710Z,23.43
2022-10-29T00:13:09.132Z,23.43
2022-10-29T00:13:39.551Z,23.45
2022-10-29T00:14:09.977Z,23.47
2022-10-29T00:14:40.399Z,23.48
2022-10-29T00:15:10.820Z,23.48
2022-10-29T00:15:41.251Z,23.50
2022-10-29T00:16:11.697Z,23.49
2022-10-29T00:16:42.114Z,23.50
2022-10-29T00:17:12.546Z,23.50
2022-10-29T00:17:42.969Z,23.51
2022-10-29T00:18:13.410Z,23.48
2022-10-29T00:18:43.826Z,23.45
2022-10-29T00:19:14.248Z,23.44
2022-10-29T00:19:44.678Z,23.43
2022-10-29T00:20:15.117Z,23.46
2022-10-29T00:20:45.558Z,23.47
2022-10-29T00:21:15.988Z,23.48
2022-10-29T00:21:46.414Z,23.48
2022-10-29T00:22:16.835Z,23.47
2022-10-29T00:22:47.255Z,23.47
2022-10-29T00:23:17.690Z,23.46
2022-10-29T00:23:48.112Z,23.46
2022-10-29T00:24:18.536Z,23.47
2022-10-29T00:24:48.962Z,23.46
2022-10-29T00:25:19.387Z,23.47
2022-10-29T00:25:49.826Z,23.45
2022-10-29T00:26:20.253Z,23.44
2022-10-29T00:26:50.671Z,23.42
2022-10-29T00:27:21.110Z,23.41
2022-10-29T00:27:51.535Z,23.42
2022-10-29T00:28:21.960Z,23.41
2022-10-29T00:28:52.391Z,23.40
2022-10-29T00:29:22.827Z,23.38
2022-10-29T00:29:53.260Z,23.37
2022-10-29T00:30:23.681Z,23.38
2022-10-29T00:30:54.116Z,23.39
2022-10-29T00:31:24.689Z,23.41
2022-10-29T00:31:55.244Z,23.42
2022-10-29T00:32:25.624Z,23.43
2022-10-29T00:32:56.448Z,23.44
2022-10-29T00:33:27.052Z,23.45
2022-10-29T00:33:57.473Z,23.45
2022-10-29T00:34:27.907Z,23.45
2022-10-29T00:34:58.340Z,23.44
2022-10-29T00:35:28.762Z,23.45
2022-10-29T00:35:59.200Z,23.46
2022-10-29T00:36:29.619Z,23.47
2022-10-29T00:37:00.046Z,23.45
2022-10-29T00:37:30.481Z,23.46
2022-10-29T00:38:00.914Z,23.46
2022-10-29T00:38:31.339Z,23.42
2022-10-29T00:39:01.759Z,23.40
2022-10-29T00:39:32.183Z,23.39
2022-10-29T00:40:02.612Z,23.41
2022-10-29T00:40:33.045Z,23.44
2022-10-29T00:41:03.486Z,23.46
2022-10-29T00:41:33.908Z,23.44
2022-10-29T00:42:04.331Z,23.42
2022-10-29T00:42:34.752Z,23.42
2022-10-29T00:43:05.176Z,23.41
2022-10-29T00:43:35.597Z,23.42
2022-10-29T00:44:06.019Z,23.41
2022-10-29T00:44:36.448Z,23.42
2022-10-29T00:45:06.869Z,23.43
2022-10-29T00:45:37.290Z,23.44
2022-10-29T00:46:07.724Z,23.46
2022-10-29T00:47:08.572Z,23.43
2022-10-29T00:47:38.997Z,23.41
2022-10-29T00:48:09.417Z,23.40
2022-10-29T00:48:39.837Z,23.42
2022-10-29T00:49:10.260Z,23.45
2022-10-29T00:49:40.693Z,23.47
2022-10-29T00:50:11.122Z,23.46
2022-10-29T00:50:41.547Z,23.45
2022-10-29T00:51:11.980Z,23.46
2022-10-29T00:51:42.405Z,23.47
2022-10-29T00:52:12.833Z,23.45
2022-10-29T00:52:43.255Z,23.46
2022-10-29T00:53:13.690Z,23.44
2022-10-29T00:53:44.112Z,23.45
2022-10-29T00:54:14.535Z,23.45
2022-10-29T00:54:44.963Z,23.46
2022-10-29T00:55:15.404Z,23.46
2022-10-29T00:55:45.814Z,23.47
2022-10-29T00:56:16.259Z,23.48
2022-10-29T00:56:46.682Z,23.45
2022-10-29T00:57:17.104Z,23.44
2022-10-29T00:57:47.539Z,23.45
2022-10-29T00:58:17.964Z,23.45
2022-10-29T00:58:48.400Z,23.46
2022-10-29T00:59:18.825Z,23.45
2022-10-29T01:00:19.624Z,23.46
2022-10-29T01:00:50.051Z,23.47
2022-10-29T01:01:20.637Z,23.46
2022-10-29T01:01:51.188Z,23.45
2022-10-29T01:02:21.764Z,23.44
2022-10-29T01:02:52.353Z,23.43
2022-10-29T01:03:22.758Z,23.46
2022-10-29T01:03:53.183Z,23.47
2022-10-29T01:04:23.605Z,23.49
2022-10-29T01:04:54.061Z,23.50
2022-10-29T01:05:24.496Z,23.48
2022-10-29T01:05:54.917Z,23.48
2022-10-29T01:06:25.363Z,23.47
2022-10-29T01:06:55.786Z,23.43
2022-10-29T01:07:26.214Z,23.43
2022-10-29T01:07:56.647Z,23.41
2022-10-29T01:08:27.087Z,23.39
2022-10-29T01:08:57.499Z,23.37
2022-10-29T01:09:27.929Z,23.39
2022-10-29T01:09:58.352Z,23.39
2022-10-29T01:10:28.777Z,23.38
2022-10-29T01:10:59.200Z,23.39
2022-10-29T01:11:29.644Z,23.39
2022-10-29T01:12:00.083Z,23.41
2022-10-29T01:12:30.488Z,23.44
2022-10-29T01:13:00.932Z,23.45
2022-10-29T01:13:31.355Z,23.46
2022-10-29T01:14:01.790Z,23.47
2022-10-29T01:14:32.202Z,23.46
2022-10-29T01:15:02.624Z,23.44
2022-10-29T01:15:33.048Z,23.43
2022-10-29T01:16:03.478Z,23.42
2022-10-29T01:16:33.921Z,23.42
2022-10-29T01:17:04.367Z,23.41
2022-10-29T01:17:34.769Z,23.44
2022-10-29T01:18:05.192Z,23.44
2022-10-29T01:18:35.674Z,23.44
2022-10-29T01:19:06.130Z,23.44
2022-10-29T01:19:36.529Z,23.41
2022-10-29T01:20:06.952Z,23.41
2022-10-29T01:20:37.381Z,23.43
2022-10-29T01:21:07.798Z,23.44
2022-10-29T01:21:38.231Z,23.45
2022-10-29T01:22:08.666Z,23.47
2022-10-29T01:22:39.088Z,23.47
2022-10-29T01:23:09.516Z,23.48
2022-10-29T01:23:39.940Z,23.49
2022-10-29T01:24:10.368Z,23.49
2022-10-29T01:24:40.793Z,23.48
2022-10-29T01:25:11.219Z,23.46
2022-10-29T01:25:41.640Z,23.42
2022-10-29T01:26:12.085Z,23.41
2022-10-29T01:26:42.523Z,23.42
2022-10-29T01:27:12.943Z,23.41
2022-10-29T01:27:43.379Z,23.43
2022-10-29T01:28:13.798Z,23.41
2022-10-29T01:28:44.221Z,23.38
2022-10-29T01:29:14.649Z,23.34
2022-10-29T01:29:45.091Z,23.33
2022-10-29T01:30:15.523Z,23.35
2022-10-29T01:30:45.952Z,23.38
2022-10-29T01:31:16.406Z,23.37
2022-10-29T01:31:46.825Z,23.36
2022-10-29T01:32:17.270Z,23.36
2022-10-29T01:32:47.674Z,23.37
2022-10-29T01:33:18.098Z,23.37
2022-10-29T01:33:48.544Z,23.37
2022-10-29T01:34:18.970Z,23.38
2022-10-29T01:34:49.397Z,23.37
2022-10-29T01:35:19.817Z,23.37
2022-10-29T01:35:50.239Z,23.37
2022-10-29T01:36:20.676Z,23.41
2022-10-29T01:36:51.109Z,23.42
2022-10-29T01:37:21.533Z,23.44
2022-10-29T01:37:51.970Z,23.45
2022-10-29T01:38:22.407Z,23.45
2022-10-29T01:38:52.837Z,23.45
2022-10-29T01:39:23.258Z,23.44
2022-10-29T01:39:53.679Z,23.43
2022-10-29T01:40:24.108Z,23.42
2022-10-29T01:40:54.536Z,23.42
2022-10-29T01:41:24.969Z,23.41
2022-10-29T01:41:55.403Z,23.40
2022-10-29T01:42:25.823Z,23.40
2022-10-29T01:42:56.604Z,23.39
2022-10-29T01:43:27.220Z,23.38
2022-10-29T01:43:57.653Z,23.36
2022-10-29T01:44:28.076Z,23.36
2022-10-29T01:44:58.508Z,23.36
2022-10-29T01:45:28.932Z,23.36
2022-10-29T01:45:59.358Z,23.38
2022-10-29T01:46:29.778Z,23.39
2022-10-29T01:47:00.210Z,23.39
2022-10-29T01:47:30.676Z,23.40
2022-10-29T01:48:01.091Z,23.42
2022-10-29T01:48:33.188Z,23.42
2022-10-29T01:49:03.839Z,23.41
2022-10-29T01:49:34.272Z,23.42
2022-10-29T01:50:04.702Z,23.42
2022-10-29T01:50:35.130Z,23.42
2022-10-29T01:51:05.559Z,23.39
2022-10-29T01:51:36.006Z,23.39
2022-10-29T01:52:06.452Z,23.38
2022-10-29T01:52:36.885Z,23.38
2022-10-29T01:53:07.319Z,23.39
2022-10-29T01:53:37.756Z,23.42
2022-10-29T01:54:08.179Z,23.44
2022-10-29T01:54:38.598Z,23.45
2022-10-29T01:55:09.032Z,23.47
2022-10-29T01:55:39.463Z,23.48
2022-10-29T01:56:09.899Z,23.49
2022-10-29T01:56:40.339Z,23.50
2022-10-29T01:57:10.781Z,23.51
2022-10-29T01:57:41.217Z,23.51
2022-10-29T01:58:11.685Z,23.50
2022-10-29T01:58:42.085Z,23.49
2022-10-29T01:59:22.852Z,23.47
2022-10-29T01:59:55.452Z,23.47
2022-10-29T02:00:23.148Z,23.43
2022-10-29T02:00:53.634Z,23.38
2022-10-29T02:01:24.158Z,23.35
2022-10-29T02:01:54.783Z,23.35
2022-10-29T02:02:25.225Z,23.34
2022-10-29T02:02:56.069Z,23.33
2022-10-29T02:03:26.686Z,23.34
2022-10-29T02:03:57.112Z,23.34
2022-10-29T02:04:27.548Z,23.35
2022-10-29T02:04:57.974Z,23.35
2022-10-29T02:05:28.410Z,23.37
2022-10-29T02:05:58.839Z,23.38
2022-10-29T02:06:29.265Z,23.39
2022-10-29T02:06:59.696Z,23.42
2022-10-29T02:07:30.130Z,23.43
2022-10-29T02:08:00.553Z,23.43
2022-10-29T02:08:31.006Z,23.42
2022-10-29T02:09:01.433Z,23.42
2022-10-29T02:09:31.856Z,23.43
2022-10-29T02:10:02.276Z,23.43
2022-10-29T02:10:32.703Z,23.43
2022-10-29T02:11:03.193Z,23.42
2022-10-29T02:11:33.564Z,23.43
2022-10-29T02:12:03.982Z,23.43
2022-10-29T02:12:34.450Z,23.42
2022-10-29T02:13:04.870Z,23.43
2022-10-29T02:13:35.288Z,23.42
2022-10-29T02:14:05.713Z,23.41
2022-10-29T02:14:36.152Z,23.40
2022-10-29T02:15:06.568Z,23.38
2022-10-29T02:15:36.990Z,23.37
2022-10-29T02:16:07.424Z,23.36
2022-10-29T02:16:37.848Z,23.35
2022-10-29T02:17:08.271Z,23.37
2022-10-29T02:17:38.739Z,23.37
2022-10-29T02:18:09.242Z,23.37
2022-10-29T02:18:39.613Z,23.36
2022-10-29T02:19:10.032Z,23.36
2022-10-29T02:19:40.462Z,23.36
2022-10-29T02:20:10.894Z,23.38
2022-10-29T02:20:41.318Z,23.36
2022-10-29T02:21:11.738Z,23.36
2022-10-29T02:21:42.169Z,23.36
2022-10-29T02:22:12.585Z,23.37
2022-10-29T02:22:43.035Z,23.39
2022-10-29T02:23:13.472Z,23.41
2022-10-29T02:23:43.900Z,23.43
2022-10-29T02:24:14.334Z,23.43
2022-10-29T02:24:44.754Z,23.44
2022-10-29T02:25:15.255Z,23.42
2022-10-29T02:25:45.710Z,23.41
2022-10-29T02:26:16.122Z,23.42
2022-10-29T02:26:46.537Z,23.42
2022-10-29T02:27:16.957Z,23.40
2022-10-29T02:27:47.437Z,23.40
2022-10-29T02:28:17.925Z,23.41
2022-10-29T02:28:48.284Z,23.41
2022-10-29T02:29:18.711Z,23.43
2022-10-29T02:29:49.177Z,23.43
2022-10-29T02:30:19.604Z,23.44
2022-10-29T02:30:50.038Z,23.44
2022-10-29T02:31:20.473Z,23.44
2022-10-29T02:31:50.883Z,23.41
2022-10-29T02:32:21.318Z,23.41
2022-10-29T02:32:51.769Z,23.41
2022-10-29T02:33:22.241Z,23.40
2022-10-29T02:33:52.678Z,23.38
2022-10-29T02:34:23.109Z,23.39
2022-10-29T02:34:53.528Z,23.41
2022-10-29T02:35:23.950Z,23.43
2022-10-29T02:35:54.383Z,23.44
2022-10-29T02:36:24.805Z,23.43
2022-10-29T02:36:55.264Z,23.44
2022-10-29T02:37:25.703Z,23.44
2022-10-29T02:37:56.139Z,23.44
2022-10-29T02:38:26.563Z,23.44
2022-10-29T02:38:57.003Z,23.44
2022-10-29T02:39:27.427Z,23.44
2022-10-29T02:39:57.855Z,23.40
2022-10-29T02:40:28.286Z,23.38
2022-10-29T02:40:58.705Z,23.37
2022-10-29T02:41:29.130Z,23.36
2022-10-29T02:41:59.586Z,23.35
2022-10-29T02:42:30.016Z,23.34
2022-10-29T02:43:00.467Z,23.36
2022-10-29T02:43:30.893Z,23.38
2022-10-29T02:44:01.328Z,23.38
2022-10-29T02:44:31.767Z,23.38
2022-10-29T02:45:02.193Z,23.37
2022-10-29T02:45:32.611Z,23.35
2022-10-29T02:46:03.036Z,23.37
2022-10-29T02:46:33.465Z,23.38
2022-10-29T02:47:03.888Z,23.37
2022-10-29T02:47:34.332Z,23.39
2022-10-29T02:48:04.779Z,23.39
2022-10-29T02:48:35.231Z,23.37
2022-10-29T02:49:05.633Z,23.35
2022-10-29T02:49:36.053Z,23.37
2022-10-29T02:50:06.494Z,23.38
2022-10-29T02:50:36.917Z,23.40
2022-10-29T02:51:07.342Z,23.39
2022-10-29T02:51:37.771Z,23.41
2022-10-29T02:52:08.188Z,23.38
2022-10-29T02:52:38.618Z,23.37
2022-10-29T02:53:09.061Z,23.36
2022-10-29T02:53:39.500Z,23.36
2022-10-29T02:54:09.924Z,23.37
2022-10-29T02:54:40.343Z,23.39
2022-10-29T02:55:10.768Z,23.40
2022-10-29T02:55:41.189Z,23.40
2022-10-29T02:56:11.612Z,23.39
2022-10-29T02:56:42.039Z,23.38
2022-10-29T02:57:12.464Z,23.38
2022-10-29T02:57:42.894Z,23.39
2022-10-29T02:58:13.374Z,23.36
2022-10-29T02:58:43.758Z,23.37
2022-10-29T02:59:14.179Z,23.40
2022-10-29T02:59:44.605Z,23.42
2022-10-29T03:00:15.028Z,23.42
2022-10-29T03:00:45.450Z,23.43
2022-10-29T03:01:15.990Z,23.44
2022-10-29T03:01:46.492Z,23.46
2022-10-29T03:02:17.160Z,23.44
2022-10-29T03:02:47.716Z,23.45
2022-10-29T03:03:18.132Z,23.44
2022-10-29T03:03:48.591Z,23.44
2022-10-29T03:04:18.997Z,23.45
2022-10-29T03:04:49.426Z,23.46
2022-10-29T03:05:19.853Z,23.44
2022-10-29T03:05:50.272Z,23.42
2022-10-29T03:06:20.708Z,23.42
2022-10-29T03:06:51.140Z,23.44
2022-10-29T03:07:21.560Z,23.44
2022-10-29T03:07:51.979Z,23.41
2022-10-29T03:08:22.413Z,23.41
2022-10-29T03:08:52.834Z,23.40
2022-10-29T03:09:23.256Z,23.41
2022-10-29T03:09:53.681Z,23.39
2022-10-29T03:10:24.106Z,23.38
2022-10-29T03:10:54.540Z,23.37
2022-10-29T03:11:24.966Z,23.34
2022-10-29T03:11:55.392Z,23.32
2022-10-29T03:12:25.828Z,23.29
2022-10-29T03:12:56.603Z,23.30
2022-10-29T03:13:27.344Z,23.32
2022-10-29T03:13:57.805Z,23.34
2022-10-29T03:14:28.224Z,23.34
2022-10-29T03:14:58.644Z,23.34
2022-10-29T03:15:29.080Z,23.31
2022-10-29T03:15:59.508Z,23.27
2022-10-29T03:16:29.929Z,23.27
2022-10-29T03:17:00.350Z,23.30
2022-10-29T03:17:30.772Z,23.30
2022-10-29T03:18:01.193Z,23.30
2022-10-29T03:18:31.631Z,23.28
2022-10-29T03:19:02.087Z,23.28
2022-10-29T03:19:32.494Z,23.31
2022-10-29T03:20:02.920Z,23.33
2022-10-29T03:20:33.339Z,23.33
2022-10-29T03:21:03.774Z,23.31
2022-10-29T03:21:34.190Z,23.29
2022-10-29T03:22:04.612Z,23.27
2022-10-29T03:22:35.036Z,23.26
2022-10-29T03:23:05.471Z,23.25
2022-10-29T03:23:36.006Z,23.29
2022-10-29T03:24:06.453Z,23.27
2022-10-29T03:24:36.879Z,23.27
2022-10-29T03:25:07.305Z,23.28
2022-10-29T03:25:37.730Z,23.30
2022-10-29T03:26:08.152Z,23.31
2022-10-29T03:26:38.574Z,23.33
2022-10-29T03:27:08.994Z,23.36
2022-10-29T03:27:39.424Z,23.36
2022-10-29T03:28:09.850Z,23.36
2022-10-29T03:28:40.388Z,23.35
2022-10-29T03:29:10.778Z,23.34
2022-10-29T03:29:41.203Z,23.33
2022-10-29T03:30:11.624Z,23.31
2022-10-29T03:30:42.047Z,23.31
2022-10-29T03:31:12.472Z,23.28
2022-10-29T03:31:42.922Z,23.26
2022-10-29T03:32:13.351Z,23.27
2022-10-29T03:32:43.778Z,23.31
2022-10-29T03:33:14.207Z,23.33
2022-10-29T03:33:44.642Z,23.33
2022-10-29T03:34:15.084Z,23.35
2022-10-29T03:34:45.493Z,23.35
2022-10-29T03:35:15.915Z,23.33
2022-10-29T03:35:46.426Z,23.33
2022-10-29T03:36:16.924Z,23.35
2022-10-29T03:36:47.386Z,23.36
2022-10-29T03:37:17.786Z,23.38
2022-10-29T03:37:48.209Z,23.38
2022-10-29T03:38:18.631Z,23.38
2022-10-29T03:38:49.068Z,23.37
2022-10-29T03:39:19.501Z,23.37
2022-10-29T03:39:49.935Z,23.37
2022-10-29T03:40:20.365Z,23.33
2022-10-29T03:40:50.797Z,23.30
2022-10-29T03:41:21.218Z,23.28
2022-10-29T03:41:51.645Z,23.28
2022-10-29T03:42:22.068Z,23.30
2022-10-29T03:42:52.701Z,23.31
2022-10-29T03:43:23.186Z,23.28
2022-10-29T03:43:53.626Z,23.27
2022-10-29T03:44:24.058Z,23.28
2022-10-29T03:44:54.487Z,23.30
2022-10-29T03:45:24.921Z,23.27
2022-10-29T03:45:55.343Z,23.28
2022-10-29T03:46:25.777Z,23.26
2022-10-29T03:46:56.213Z,23.25
2022-10-29T03:47:26.641Z,23.22
2022-10-29T03:47:57.621Z,23.21
2022-10-29T03:48:28.345Z,23.25
2022-10-29T03:48:58.792Z,23.27
2022-10-29T03:49:29.235Z,23.28
2022-10-29T03:49:59.648Z,23.30
2022-10-29T03:50:30.067Z,23.29
2022-10-29T03:51:00.488Z,23.30
2022-10-29T03:51:30.909Z,23.31
2022-10-29T03:52:01.332Z,23.34
2022-10-29T03:52:31.758Z,23.35
2022-10-29T03:53:02.235Z,23.36
2022-10-29T03:53:32.642Z,23.37
2022-10-29T03:54:03.076Z,23.40
2022-10-29T03:54:33.497Z,23.37
2022-10-29T03:55:03.962Z,23.34
2022-10-29T03:55:34.398Z,23.33
2022-10-29T03:56:04.832Z,23.31
2022-10-29T03:56:35.256Z,23.31
2022-10-29T03:57:05.677Z,23.30
2022-10-29T03:57:36.129Z,23.27
2022-10-29T03:58:06.550Z,23.25
2022-10-29T03:58:36.997Z,23.24
2022-10-29T03:59:07.521Z,23.25
2022-10-29T03:59:37.920Z,23.26
2022-10-29T04:00:08.340Z,23.28
2022-10-29T04:00:38.762Z,23.30
2022-10-29T04:01:09.191Z,23.29
2022-10-29T04:01:39.774Z,23.30
2022-10-29T04:02:10.449Z,23.31
2022-10-29T04:02:41.143Z,23.30
2022-10-29T04:03:11.617Z,23.33
2022-10-29T04:03:42.039Z,23.35
2022-10-29T04:04:12.471Z,23.33
2022-10-29T04:04:42.913Z,23.33
2022-10-29T04:05:13.323Z,23.31
2022-10-29T04:05:43.745Z,23.31
2022-10-29T04:06:14.169Z,23.32
2022-10-29T04:06:44.610Z,23.33
2022-10-29T04:07:15.041Z,23.31
2022-10-29T04:07:45.463Z,23.30
2022-10-29T04:08:15.885Z,23.28
2022-10-29T04:08:46.310Z,23.28
2022-10-29T04:09:16.752Z,23.28
2022-10-29T04:09:47.187Z,23.30
2022-10-29T04:10:17.616Z,23.31
2022-10-29T04:10:48.041Z,23.31
2022-10-29T04:11:18.461Z,23.31
2022-10-29T04:11:48.883Z,23.33
2022-10-29T04:12:19.324Z,23.31
2022-10-29T04:12:49.749Z,23.31
2022-10-29T04:13:20.702Z,23.28
2022-10-29T04:13:51.090Z,23.28
2022-10-29T04:14:21.538Z,23.26
2022-10-29T04:15:22.298Z,23.29
2022-10-29T04:15:52.719Z,23.31
2022-10-29T04:16:23.156Z,23.33
2022-10-29T04:16:53.585Z,23.35
2022-10-29T04:17:24.005Z,23.34
2022-10-29T04:17:54.877Z,23.32
2022-10-29T04:18:25.508Z,23.30
2022-10-29T04:18:55.922Z,23.30
2022-10-29T04:19:26.352Z,23.30
2022-10-29T04:19:56.797Z,23.31
2022-10-29T04:20:43.367Z,23.32
2022-10-29T04:28:36.766Z,23.32
2022-10-29T04:28:43.536Z,23.30
2022-10-29T04:29:14.407Z,23.33
2022-10-29T04:29:44.845Z,23.35
2022-10-29T04:30:15.297Z,23.36
2022-10-29T04:30:45.698Z,23.36
2022-10-29T04:31:16.126Z,23.34
2022-10-29T04:31:46.553Z,23.35
2022-10-29T04:32:16.975Z,23.33
2022-10-29T04:32:47.416Z,23.33
2022-10-29T04:33:17.857Z,23.32
2022-10-29T04:33:48.278Z,23.32
2022-10-29T04:34:18.710Z,23.32
2022-10-29T04:34:49.142Z,23.30
2022-10-29T04:35:19.642Z,23.28
2022-10-29T04:35:50.051Z,23.26
2022-10-29T04:36:20.471Z,23.25
2022-10-29T04:36:50.891Z,23.28
2022-10-29T04:37:21.337Z,23.31
2022-10-29T04:37:51.777Z,23.34
2022-10-29T04:38:22.199Z,23.36
2022-10-29T04:38:52.624Z,23.35
2022-10-29T04:39:23.576Z,23.30
2022-10-29T04:39:54.086Z,23.28
2022-10-29T04:40:24.586Z,23.26
2022-10-29T04:40:54.992Z,23.26
2022-10-29T04:41:25.416Z,23.25
2022-10-29T04:41:55.843Z,23.27
2022-10-29T04:42:26.290Z,23.29
2022-10-29T04:42:57.068Z,23.31
2022-10-29T04:43:27.627Z,23.30
2022-10-29T04:43:58.062Z,23.31
2022-10-29T04:44:28.488Z,23.30
2022-10-29T04:44:58.927Z,23.29
2022-10-29T04:45:29.397Z,23.29
2022-10-29T04:45:59.799Z,23.28
2022-10-29T04:46:30.227Z,23.30
2022-10-29T04:47:00.647Z,23.31
2022-10-29T04:47:31.075Z,23.32
2022-10-29T04:48:01.501Z,23.34
2022-10-29T04:48:31.932Z,23.35
2022-10-29T04:49:02.436Z,23.36
2022-10-29T04:49:32.891Z,23.34
2022-10-29T04:50:03.350Z,23.32
2022-10-29T04:50:33.801Z,23.27
2022-10-29T04:51:04.210Z,23.26
2022-10-29T04:51:34.634Z,23.23
2022-10-29T04:52:05.060Z,23.24
2022-10-29T04:52:35.492Z,23.26
2022-10-29T04:53:05.913Z,23.27
2022-10-29T04:53:36.339Z,23.27
2022-10-29T04:54:06.772Z,23.27
2022-10-29T04:54:37.182Z,23.28
2022-10-29T04:55:07.627Z,23.27
2022-10-29T04:55:38.054Z,23.28
2022-10-29T04:56:08.481Z,23.28
2022-10-29T04:56:38.915Z,23.29
2022-10-29T04:57:09.333Z,23.28
2022-10-29T04:57:39.757Z,23.28
2022-10-29T04:58:10.180Z,23.30
2022-10-29T04:58:40.603Z,23.28
2022-10-29T04:59:11.036Z,23.27
2022-10-29T04:59:41.455Z,23.25
2022-10-29T05:00:16.271Z,23.23
2022-10-29T05:00:47.343Z,23.22
2022-10-29T05:01:17.956Z,23.24
2022-10-29T05:01:48.409Z,23.26
2022-10-29T05:02:18.837Z,23.30
2022-10-29T05:02:49.271Z,23.31
2022-10-29T05:03:19.688Z,23.28
2022-10-29T05:03:51.375Z,23.30
2022-10-29T05:04:23.474Z,23.32
2022-10-29T05:04:53.895Z,23.31
2022-10-29T05:05:24.335Z,23.30
2022-10-29T05:05:54.806Z,23.28
2022-10-29T05:06:25.230Z,23.27
2022-10-29T05:06:55.647Z,23.27
2022-10-29T05:07:26.071Z,23.26
2022-10-29T05:07:56.493Z,23.25
2022-10-29T05:08:26.920Z,23.26
2022-10-29T05:08:57.336Z,23.28
2022-10-29T05:09:27.762Z,23.30
2022-10-29T05:09:58.211Z,23.27
2022-10-29T05:10:28.671Z,23.24
2022-10-29T05:10:59.089Z,23.23
2022-10-29T05:11:29.511Z,23.25
2022-10-29T05:11:59.932Z,23.25
2022-10-29T05:12:30.354Z,23.23
2022-10-29T05:13:00.793Z,23.23
2022-10-29T05:13:31.218Z,23.22
2022-10-29T05:14:01.642Z,23.21
2022-10-29T05:14:32.064Z,23.20
2022-10-29T05:15:02.485Z,23.19
2022-10-29T05:15:32.926Z,23.18
2022-10-29T05:16:03.373Z,23.21
2022-10-29T05:16:33.815Z,23.23
2022-10-29T05:17:04.350Z,23.23
2022-10-29T05:17:34.810Z,23.25
2022-10-29T05:18:05.240Z,23.25
2022-10-29T05:18:35.665Z,23.25
2022-10-29T05:19:06.090Z,23.26
2022-10-29T05:19:36.514Z,23.24
2022-10-29T05:20:06.940Z,23.23
2022-10-29T05:20:37.386Z,23.23
2022-10-29T05:21:07.835Z,23.23
2022-10-29T05:21:38.247Z,23.25
2022-10-29T05:22:08.675Z,23.24
2022-10-29T05:22:39.103Z,23.24
2022-10-29T05:23:09.523Z,23.25
2022-10-29T05:23:39.958Z,23.25
2022-10-29T05:24:10.392Z,23.25
2022-10-29T05:24:40.803Z,23.25
2022-10-29T05:25:11.224Z,23.25
2022-10-29T05:25:41.664Z,23.25
2022-10-29T05:26:12.084Z,23.24
2022-10-29T05:26:42.545Z,23.24
2022-10-29T05:27:12.960Z,23.26
2022-10-29T05:27:43.383Z,23.25
2022-10-29T05:28:13.813Z,23.25
2022-10-29T05:28:44.233Z,23.24
2022-10-29T05:29:14.658Z,23.26
2022-10-29T05:29:45.089Z,23.29
2022-10-29T05:30:15.513Z,23.31
2022-10-29T05:30:45.942Z,23.30
2022-10-29T05:31:16.371Z,23.30
2022-10-29T05:31:46.794Z,23.27
2022-10-29T05:32:17.214Z,23.27
2022-10-29T05:32:47.639Z,23.24
2022-10-29T05:33:18.066Z,23.23
2022-10-29T05:33:50.044Z,23.22
2022-10-29T05:34:22.854Z,23.20
2022-10-29T05:34:53.275Z,23.22
2022-10-29T05:35:23.695Z,23.23
2022-10-29T05:35:54.329Z,23.22
2022-10-29T05:36:24.771Z,23.20
2022-10-29T05:36:55.174Z,23.20
2022-10-29T05:37:25.596Z,23.21
2022-10-29T05:37:56.015Z,23.21
2022-10-29T05:38:26.451Z,23.22
2022-10-29T05:38:56.880Z,23.25
2022-10-29T05:39:27.308Z,23.27
2022-10-29T05:39:57.732Z,23.28
2022-10-29T05:40:28.153Z,23.30
2022-10-29T05:40:58.600Z,23.26
2022-10-29T05:41:29.033Z,23.23
2022-10-29T05:41:59.454Z,23.21
2022-10-29T05:42:29.875Z,23.21
2022-10-29T05:43:00.872Z,23.23
2022-10-29T05:43:31.487Z,23.23
2022-10-29T05:44:01.922Z,23.21
2022-10-29T05:44:32.344Z,23.22
2022-10-29T05:45:02.769Z,23.23
2022-10-29T05:45:33.193Z,23.25
2022-10-29T05:46:03.641Z,23.28
2022-10-29T05:46:34.066Z,23.30
2022-10-29T05:47:04.487Z,23.26
2022-10-29T05:47:34.917Z,23.24
2022-10-29T05:48:05.424Z,23.23
2022-10-29T05:48:35.841Z,23.27
2022-10-29T05:49:06.267Z,23.29
2022-10-29T05:49:36.674Z,23.31
2022-10-29T05:50:07.104Z,23.31
2022-10-29T05:50:37.523Z,23.28
2022-10-29T05:51:07.967Z,23.29
2022-10-29T05:51:38.414Z,23.27
2022-10-29T05:52:08.833Z,23.27
2022-10-29T05:52:39.260Z,23.26
2022-10-29T05:53:09.698Z,23.27
2022-10-29T05:53:40.111Z,23.24
2022-10-29T05:54:10.542Z,23.25
2022-10-29T05:54:40.955Z,23.25
2022-10-29T05:55:11.380Z,23.25
2022-10-29T05:55:41.822Z,23.23
2022-10-29T05:56:12.258Z,23.22
2022-10-29T05:56:42.678Z,23.22
2022-10-29T05:57:13.103Z,23.21
2022-10-29T05:57:43.530Z,23.26
2022-10-29T05:58:13.984Z,23.28
2022-10-29T05:58:44.372Z,23.32
2022-10-29T05:59:14.800Z,23.33
2022-10-29T05:59:45.224Z,23.33
2022-10-29T06:00:15.651Z,23.32
2022-10-29T06:00:46.075Z,23.31
2022-10-29T06:01:16.606Z,23.31
2022-10-29T06:01:47.178Z,23.28
2022-10-29T06:02:17.741Z,23.27
2022-10-29T06:02:48.251Z,23.26
2022-10-29T06:03:18.640Z,23.28
2022-10-29T06:03:49.093Z,23.30
2022-10-29T06:04:19.513Z,23.30
2022-10-29T06:04:49.939Z,23.28
2022-10-29T06:05:20.362Z,23.28
2022-10-29T06:05:50.801Z,23.28
2022-10-29T06:06:21.335Z,23.30
2022-10-29T06:06:51.781Z,23.30
2022-10-29T06:07:22.199Z,23.31
2022-10-29T06:07:52.693Z,23.32
2022-10-29T06:08:23.096Z,23.33
2022-10-29T06:08:53.516Z,23.34
2022-10-29T06:09:23.959Z,23.35
2022-10-29T06:09:54.395Z,23.37
2022-10-29T06:10:24.825Z,23.39
2022-10-29T06:10:55.251Z,23.38
2022-10-29T06:11:25.687Z,23.37
2022-10-29T06:11:56.113Z,23.37
2022-10-29T06:12:28.981Z,23.35
2022-10-29T06:13:01.520Z,23.31
2022-10-29T06:13:31.932Z,23.28
2022-10-29T06:14:02.366Z,23.28
2022-10-29T06:14:32.790Z,23.27
2022-10-29T06:15:03.215Z,23.26
2022-10-29T06:15:33.652Z,23.23
2022-10-29T06:16:04.092Z,23.22
2022-10-29T06:16:34.533Z,23.20
2022-10-29T06:17:04.953Z,23.22
2022-10-29T06:17:35.389Z,23.24
2022-10-29T06:18:05.835Z,23.25
2022-10-29T06:18:36.249Z,23.26
2022-10-29T06:19:06.671Z,23.27
2022-10-29T06:19:37.206Z,23.28
2022-10-29T06:20:07.596Z,23.30
2022-10-29T06:20:38.040Z,23.34
2022-10-29T06:21:08.458Z,23.35
2022-10-29T06:21:38.901Z,23.36
2022-10-29T06:22:09.357Z,23.33
2022-10-29T06:22:39.759Z,23.32
2022-10-29T06:23:10.196Z,23.28
2022-10-29T06:23:40.623Z,23.25
2022-10-29T06:24:11.043Z,23.25
2022-10-29T06:24:41.467Z,23.25
2022-10-29T06:25:11.890Z,23.25
2022-10-29T06:25:42.313Z,23.25
2022-10-29T06:26:12.749Z,23.26
2022-10-29T06:26:43.180Z,23.27
2022-10-29T06:27:13.603Z,23.27
2022-10-29T06:27:44.026Z,23.27
2022-10-29T06:28:14.458Z,23.26
2022-10-29T06:28:44.877Z,23.24
2022-10-29T06:29:15.301Z,23.25
2022-10-29T06:29:45.733Z,23.26
2022-10-29T06:30:16.148Z,23.25
2022-10-29T06:30:46.578Z,23.25
2022-10-29T06:31:17.027Z,23.25
2022-10-29T06:31:47.475Z,23.26
2022-10-29T06:32:17.916Z,23.31
2022-10-29T06:32:48.343Z,23.32
2022-10-29T06:33:18.767Z,23.34
2022-10-29T06:33:49.190Z,23.32
2022-10-29T06:34:19.612Z,23.34
2022-10-29T06:34:50.039Z,23.33
2022-10-29T06:35:20.541Z,23.33
2022-10-29T06:35:50.929Z,23.35
2022-10-29T06:36:21.363Z,23.35
2022-10-29T06:36:51.807Z,23.37
2022-10-29T06:37:22.257Z,23.37
2022-10-29T06:37:52.717Z,23.36
2022-10-29T06:38:23.142Z,23.33
2022-10-29T06:38:53.578Z,23.32
2022-10-29T06:39:24.015Z,23.32
2022-10-29T06:39:54.439Z,23.32
2022-10-29T06:40:24.863Z,23.33
2022-10-29T06:40:55.291Z,23.36
2022-10-29T06:41:25.710Z,23.38